sensor_id;sensor_type;location;lat;lon;timestamp;P1;durP1;ratioP1;P2;durP2;ratioP2
18206;SDS011;9229;52.354;20.886;2023-07-13T00:04:06;18.77;;;11.52;;
18206;SDS011;9229;52.354;20.886;2023-07-13T00:09:13;13.85;;;10.98;;
18206;SDS011;9229;52.354;20.886;2023-07-13T00:14:16;12.15;;;10.82;;
18206;SDS011;9229;52.354;20.886;2023-07-13T00:19:20;13.85;;;11.18;;
18206;SDS011;9229;52.354;20.886;2023-07-13T00:24:22;14.07;;;11.15;;
18206;SDS011;9229;52.354;20.886;2023-07-13T00:29:30;16.20;;;11.82;;
18206;SDS011;9229;52.354;20.886;2023-07-13T00:34:43;16.55;;;12.23;;
18206;SDS011;9229;52.354;20.886;2023-07-13T00:39:45;16.00;;;12.00;;
18206;SDS011;9229;52.354;20.886;2023-07-13T00:45:03;17.05;;;12.05;;
18206;SDS011;9229;52.354;20.886;2023-07-13T00:50:10;16.98;;;12.05;;
18206;SDS011;9229;52.354;20.886;2023-07-13T00:55:26;13.18;;;10.93;;
18206;SDS011;9229;52.354;20.886;2023-07-13T01:00:33;23.75;;;11.48;;
18206;SDS011;9229;52.354;20.886;2023-07-13T01:05:40;16.00;;;11.50;;
18206;SDS011;9229;52.354;20.886;2023-07-13T01:10:51;16.65;;;11.30;;
18206;SDS011;9229;52.354;20.886;2023-07-13T01:16:18;14.98;;;11.05;;
18206;SDS011;9229;52.354;20.886;2023-07-13T01:21:51;12.10;;;10.73;;
18206;SDS011;9229;52.354;20.886;2023-07-13T01:26:56;16.98;;;12.00;;
18206;SDS011;9229;52.354;20.886;2023-07-13T01:31:58;16.85;;;11.30;;
18206;SDS011;9229;52.354;20.886;2023-07-13T01:37:12;12.55;;;11.15;;
18206;SDS011;9229;52.354;20.886;2023-07-13T01:42:15;16.58;;;11.52;;
18206;SDS011;9229;52.354;20.886;2023-07-13T01:47:19;15.38;;;12.15;;
18206;SDS011;9229;52.354;20.886;2023-07-13T01:52:27;16.25;;;11.02;;
18206;SDS011;9229;52.354;20.886;2023-07-13T01:57:34;14.05;;;11.30;;
18206;SDS011;9229;52.354;20.886;2023-07-13T02:02:36;14.02;;;11.48;;
18206;SDS011;9229;52.354;20.886;2023-07-13T02:07:45;15.25;;;11.20;;
18206;SDS011;9229;52.354;20.886;2023-07-13T02:12:50;15.88;;;11.68;;
18206;SDS011;9229;52.354;20.886;2023-07-13T02:17:56;16.67;;;11.88;;
18206;SDS011;9229;52.354;20.886;2023-07-13T02:23:02;14.15;;;11.48;;
18206;SDS011;9229;52.354;20.886;2023-07-13T02:28:06;19.38;;;12.30;;
18206;SDS011;9229;52.354;20.886;2023-07-13T02:33:08;14.68;;;11.30;;
18206;SDS011;9229;52.354;20.886;2023-07-13T02:38:12;13.50;;;11.23;;
18206;SDS011;9229;52.354;20.886;2023-07-13T02:43:17;15.02;;;12.00;;
18206;SDS011;9229;52.354;20.886;2023-07-13T02:48:22;16.55;;;11.77;;
18206;SDS011;9229;52.354;20.886;2023-07-13T02:53:31;22.50;;;12.13;;
18206;SDS011;9229;52.354;20.886;2023-07-13T02:58:41;15.93;;;11.70;;
18206;SDS011;9229;52.354;20.886;2023-07-13T03:03:43;16.80;;;12.63;;
18206;SDS011;9229;52.354;20.886;2023-07-13T03:08:51;17.70;;;11.90;;
18206;SDS011;9229;52.354;20.886;2023-07-13T03:13:57;18.40;;;11.55;;
18206;SDS011;9229;52.354;20.886;2023-07-13T03:19:06;18.50;;;11.30;;
18206;SDS011;9229;52.354;20.886;2023-07-13T03:24:31;18.48;;;12.00;;
18206;SDS011;9229;52.354;20.886;2023-07-13T03:29:41;18.90;;;13.35;;
18206;SDS011;9229;52.354;20.886;2023-07-13T03:34:49;16.65;;;12.50;;
18206;SDS011;9229;52.354;20.886;2023-07-13T03:39:57;18.02;;;12.27;;
18206;SDS011;9229;52.354;20.886;2023-07-13T03:45:00;15.70;;;12.50;;
18206;SDS011;9229;52.354;20.886;2023-07-13T03:50:06;17.38;;;12.38;;
18206;SDS011;9229;52.354;20.886;2023-07-13T03:55:13;16.80;;;12.90;;
18206;SDS011;9229;52.354;20.886;2023-07-13T04:00:19;19.35;;;11.98;;
18206;SDS011;9229;52.354;20.886;2023-07-13T04:05:21;18.60;;;13.25;;
18206;SDS011;9229;52.354;20.886;2023-07-13T04:10:28;23.13;;;14.18;;
18206;SDS011;9229;52.354;20.886;2023-07-13T04:15:32;19.58;;;13.30;;
18206;SDS011;9229;52.354;20.886;2023-07-13T04:20:36;20.13;;;13.00;;
18206;SDS011;9229;52.354;20.886;2023-07-13T04:25:42;20.27;;;12.98;;
18206;SDS011;9229;52.354;20.886;2023-07-13T04:30:50;17.85;;;13.07;;
18206;SDS011;9229;52.354;20.886;2023-07-13T04:35:55;19.25;;;13.07;;
18206;SDS011;9229;52.354;20.886;2023-07-13T04:41:00;20.83;;;13.25;;
18206;SDS011;9229;52.354;20.886;2023-07-13T04:46:08;19.13;;;12.48;;
18206;SDS011;9229;52.354;20.886;2023-07-13T04:51:20;16.58;;;11.48;;
18206;SDS011;9229;52.354;20.886;2023-07-13T04:56:28;16.60;;;12.43;;
18206;SDS011;9229;52.354;20.886;2023-07-13T05:01:38;13.65;;;11.68;;
18206;SDS011;9229;52.354;20.886;2023-07-13T05:06:41;17.38;;;12.02;;
18206;SDS011;9229;52.354;20.886;2023-07-13T05:11:50;18.05;;;12.30;;
18206;SDS011;9229;52.354;20.886;2023-07-13T05:17:04;16.98;;;12.48;;
18206;SDS011;9229;52.354;20.886;2023-07-13T05:22:09;15.77;;;12.73;;
18206;SDS011;9229;52.354;20.886;2023-07-13T05:27:12;17.85;;;12.20;;
18206;SDS011;9229;52.354;20.886;2023-07-13T05:32:22;18.17;;;13.15;;
18206;SDS011;9229;52.354;20.886;2023-07-13T05:37:24;15.32;;;11.38;;
18206;SDS011;9229;52.354;20.886;2023-07-13T05:42:30;18.63;;;13.52;;
18206;SDS011;9229;52.354;20.886;2023-07-13T05:47:40;19.25;;;13.27;;
18206;SDS011;9229;52.354;20.886;2023-07-13T05:52:46;18.88;;;14.23;;
18206;SDS011;9229;52.354;20.886;2023-07-13T05:57:50;18.95;;;14.18;;
18206;SDS011;9229;52.354;20.886;2023-07-13T06:03:00;19.30;;;15.07;;
18206;SDS011;9229;52.354;20.886;2023-07-13T06:08:09;20.98;;;14.25;;
18206;SDS011;9229;52.354;20.886;2023-07-13T06:13:13;20.35;;;15.30;;
18206;SDS011;9229;52.354;20.886;2023-07-13T06:18:19;21.63;;;15.05;;
18206;SDS011;9229;52.354;20.886;2023-07-13T06:23:23;20.92;;;13.52;;
18206;SDS011;9229;52.354;20.886;2023-07-13T06:28:34;22.33;;;15.00;;
18206;SDS011;9229;52.354;20.886;2023-07-13T06:33:58;23.77;;;14.85;;
18206;SDS011;9229;52.354;20.886;2023-07-13T06:39:11;22.38;;;12.73;;
18206;SDS011;9229;52.354;20.886;2023-07-13T06:44:17;17.50;;;12.07;;
18206;SDS011;9229;52.354;20.886;2023-07-13T06:49:39;17.00;;;11.57;;
18206;SDS011;9229;52.354;20.886;2023-07-13T06:54:50;15.63;;;9.95;;
18206;SDS011;9229;52.354;20.886;2023-07-13T07:05:36;11.63;;;10.00;;
18206;SDS011;9229;52.354;20.886;2023-07-13T07:11:15;13.88;;;8.20;;
18206;SDS011;9229;52.354;20.886;2023-07-13T07:16:38;8.23;;;6.65;;
18206;SDS011;9229;52.354;20.886;2023-07-13T07:21:43;7.25;;;6.25;;
18206;SDS011;9229;52.354;20.886;2023-07-13T07:27:00;6.72;;;5.82;;
18206;SDS011;9229;52.354;20.886;2023-07-13T07:38:14;9.13;;;5.90;;
18206;SDS011;9229;52.354;20.886;2023-07-13T07:46:39;11.23;;;5.85;;
18206;SDS011;9229;52.354;20.886;2023-07-13T07:51:13;9.60;;;5.82;;
18206;SDS011;9229;52.354;20.886;2023-07-13T07:56:26;5.10;;;4.70;;
18206;SDS011;9229;52.354;20.886;2023-07-13T08:01:37;6.63;;;4.75;;
18206;SDS011;9229;52.354;20.886;2023-07-13T08:07:28;7.95;;;5.45;;
18206;SDS011;9229;52.354;20.886;2023-07-13T08:12:38;8.57;;;4.85;;
18206;SDS011;9229;52.354;20.886;2023-07-13T08:24:02;5.53;;;4.75;;
18206;SDS011;9229;52.354;20.886;2023-07-13T08:34:35;4.70;;;4.10;;
18206;SDS011;9229;52.354;20.886;2023-07-13T08:39:42;5.55;;;4.25;;
18206;SDS011;9229;52.354;20.886;2023-07-13T08:45:20;5.07;;;4.05;;
18206;SDS011;9229;52.354;20.886;2023-07-13T08:50:41;5.10;;;4.25;;
18206;SDS011;9229;52.354;20.886;2023-07-13T08:56:08;9.52;;;4.05;;
18206;SDS011;9229;52.354;20.886;2023-07-13T09:01:20;9.50;;;3.53;;
18206;SDS011;9229;52.354;20.886;2023-07-13T09:06:43;7.55;;;3.15;;
18206;SDS011;9229;52.354;20.886;2023-07-13T09:12:19;3.80;;;3.08;;
18206;SDS011;9229;52.354;20.886;2023-07-13T09:17:41;4.28;;;3.00;;
18206;SDS011;9229;52.354;20.886;2023-07-13T09:22:57;4.70;;;2.70;;
18206;SDS011;9229;52.354;20.886;2023-07-13T09:28:05;6.18;;;2.67;;
18206;SDS011;9229;52.354;20.886;2023-07-13T09:38:41;3.30;;;2.60;;
18206;SDS011;9229;52.354;20.886;2023-07-13T09:44:06;2.75;;;2.50;;
18206;SDS011;9229;52.354;20.886;2023-07-13T09:49:35;2.60;;;2.50;;
18206;SDS011;9229;52.354;20.886;2023-07-13T09:54:38;2.45;;;2.35;;
18206;SDS011;9229;52.354;20.886;2023-07-13T09:59:41;4.05;;;2.83;;
18206;SDS011;9229;52.354;20.886;2023-07-13T10:04:57;4.85;;;2.67;;
18206;SDS011;9229;52.354;20.886;2023-07-13T10:10:03;3.47;;;2.80;;
18206;SDS011;9229;52.354;20.886;2023-07-13T10:15:23;3.35;;;3.15;;
18206;SDS011;9229;52.354;20.886;2023-07-13T10:20:46;9.55;;;3.22;;
18206;SDS011;9229;52.354;20.886;2023-07-13T10:26:00;5.65;;;3.92;;
18206;SDS011;9229;52.354;20.886;2023-07-13T10:31:11;5.07;;;3.63;;
18206;SDS011;9229;52.354;20.886;2023-07-13T10:48:35;4.63;;;4.22;;
18206;SDS011;9229;52.354;20.886;2023-07-13T10:59:34;5.20;;;4.57;;
18206;SDS011;9229;52.354;20.886;2023-07-13T11:04:54;7.85;;;5.25;;
18206;SDS011;9229;52.354;20.886;2023-07-13T11:10:52;7.88;;;4.78;;
18206;SDS011;9229;52.354;20.886;2023-07-13T11:15:58;4.65;;;4.25;;
18206;SDS011;9229;52.354;20.886;2023-07-13T11:26:58;5.82;;;5.30;;
18206;SDS011;9229;52.354;20.886;2023-07-13T11:32:01;7.03;;;4.93;;
18206;SDS011;9229;52.354;20.886;2023-07-13T11:37:30;5.82;;;5.18;;
18206;SDS011;9229;52.354;20.886;2023-07-13T11:42:56;8.30;;;6.30;;
18206;SDS011;9229;52.354;20.886;2023-07-13T11:48:01;9.82;;;6.50;;
18206;SDS011;9229;52.354;20.886;2023-07-13T11:53:12;13.35;;;6.85;;
18206;SDS011;9229;52.354;20.886;2023-07-13T11:58:23;9.25;;;6.43;;
18206;SDS011;9229;52.354;20.886;2023-07-13T12:03:33;15.80;;;6.47;;
18206;SDS011;9229;52.354;20.886;2023-07-13T12:08:42;9.93;;;6.93;;
18206;SDS011;9229;52.354;20.886;2023-07-13T12:13:48;5.82;;;5.22;;
18206;SDS011;9229;52.354;20.886;2023-07-13T12:19:14;6.03;;;5.53;;
18206;SDS011;9229;52.354;20.886;2023-07-13T12:24:24;11.57;;;5.65;;
18206;SDS011;9229;52.354;20.886;2023-07-13T12:29:48;6.93;;;5.78;;
18206;SDS011;9229;52.354;20.886;2023-07-13T12:35:12;5.30;;;4.80;;
18206;SDS011;9229;52.354;20.886;2023-07-13T12:40:32;4.97;;;4.50;;
18206;SDS011;9229;52.354;20.886;2023-07-13T12:45:55;4.95;;;4.40;;
18206;SDS011;9229;52.354;20.886;2023-07-13T12:51:00;4.72;;;4.43;;
18206;SDS011;9229;52.354;20.886;2023-07-13T12:56:10;5.50;;;4.53;;
18206;SDS011;9229;52.354;20.886;2023-07-13T13:01:25;4.75;;;4.28;;
18206;SDS011;9229;52.354;20.886;2023-07-13T13:06:34;7.47;;;6.00;;
18206;SDS011;9229;52.354;20.886;2023-07-13T13:11:53;6.75;;;5.97;;
18206;SDS011;9229;52.354;20.886;2023-07-13T13:17:29;12.40;;;7.07;;
18206;SDS011;9229;52.354;20.886;2023-07-13T13:22:41;8.30;;;6.82;;
18206;SDS011;9229;52.354;20.886;2023-07-13T13:28:12;9.98;;;6.68;;
18206;SDS011;9229;52.354;20.886;2023-07-13T13:33:23;9.10;;;6.53;;
18206;SDS011;9229;52.354;20.886;2023-07-13T13:38:28;7.05;;;6.35;;
18206;SDS011;9229;52.354;20.886;2023-07-13T13:43:31;7.28;;;6.57;;
18206;SDS011;9229;52.354;20.886;2023-07-13T13:48:44;14.13;;;7.20;;
18206;SDS011;9229;52.354;20.886;2023-07-13T13:53:51;10.43;;;7.75;;
18206;SDS011;9229;52.354;20.886;2023-07-13T13:58:54;9.25;;;7.28;;
18206;SDS011;9229;52.354;20.886;2023-07-13T14:04:03;7.63;;;6.93;;
18206;SDS011;9229;52.354;20.886;2023-07-13T14:09:08;11.90;;;8.88;;
18206;SDS011;9229;52.354;20.886;2023-07-13T14:14:35;11.15;;;7.88;;
18206;SDS011;9229;52.354;20.886;2023-07-13T14:19:51;12.63;;;7.50;;
18206;SDS011;9229;52.354;20.886;2023-07-13T14:24:57;10.27;;;7.47;;
18206;SDS011;9229;52.354;20.886;2023-07-13T14:30:21;7.70;;;6.63;;
18206;SDS011;9229;52.354;20.886;2023-07-13T14:35:28;8.80;;;6.70;;
18206;SDS011;9229;52.354;20.886;2023-07-13T14:46:51;7.43;;;6.82;;
18206;SDS011;9229;52.354;20.886;2023-07-13T14:52:08;7.25;;;6.63;;
18206;SDS011;9229;52.354;20.886;2023-07-13T15:02:51;7.55;;;6.85;;
18206;SDS011;9229;52.354;20.886;2023-07-13T15:08:00;9.75;;;8.18;;
18206;SDS011;9229;52.354;20.886;2023-07-13T15:13:19;10.02;;;7.80;;
18206;SDS011;9229;52.354;20.886;2023-07-13T15:18:29;9.50;;;8.30;;
18206;SDS011;9229;52.354;20.886;2023-07-13T15:23:48;9.23;;;7.93;;
18206;SDS011;9229;52.354;20.886;2023-07-13T15:29:02;7.95;;;7.20;;
18206;SDS011;9229;52.354;20.886;2023-07-13T15:34:11;8.30;;;7.60;;
18206;SDS011;9229;52.354;20.886;2023-07-13T15:45:10;12.15;;;7.93;;
18206;SDS011;9229;52.354;20.886;2023-07-13T15:50:46;8.95;;;7.95;;
18206;SDS011;9229;52.354;20.886;2023-07-13T15:55:52;9.73;;;7.90;;
18206;SDS011;9229;52.354;20.886;2023-07-13T16:00:59;15.60;;;8.48;;
18206;SDS011;9229;52.354;20.886;2023-07-13T16:06:08;11.07;;;8.80;;
18206;SDS011;9229;52.354;20.886;2023-07-13T16:11:18;9.80;;;8.52;;
18206;SDS011;9229;52.354;20.886;2023-07-13T16:16:24;11.93;;;9.48;;
18206;SDS011;9229;52.354;20.886;2023-07-13T16:21:36;13.30;;;9.63;;
18206;SDS011;9229;52.354;20.886;2023-07-13T16:26:50;13.48;;;8.85;;
18206;SDS011;9229;52.354;20.886;2023-07-13T16:31:56;10.00;;;9.00;;
18206;SDS011;9229;52.354;20.886;2023-07-13T16:37:02;12.60;;;9.48;;
18206;SDS011;9229;52.354;20.886;2023-07-13T16:42:11;12.55;;;8.88;;
18206;SDS011;9229;52.354;20.886;2023-07-13T16:47:21;11.50;;;9.00;;
18206;SDS011;9229;52.354;20.886;2023-07-13T16:52:24;10.27;;;9.25;;
18206;SDS011;9229;52.354;20.886;2023-07-13T16:57:32;18.52;;;9.93;;
18206;SDS011;9229;52.354;20.886;2023-07-13T17:02:38;13.95;;;9.32;;
18206;SDS011;9229;52.354;20.886;2023-07-13T17:07:48;10.50;;;9.10;;
18206;SDS011;9229;52.354;20.886;2023-07-13T17:12:57;12.27;;;9.98;;
18206;SDS011;9229;52.354;20.886;2023-07-13T17:18:08;20.88;;;10.23;;
18206;SDS011;9229;52.354;20.886;2023-07-13T17:23:19;11.68;;;8.95;;
18206;SDS011;9229;52.354;20.886;2023-07-13T17:28:45;10.52;;;8.55;;
18206;SDS011;9229;52.354;20.886;2023-07-13T17:34:25;9.70;;;8.70;;
18206;SDS011;9229;52.354;20.886;2023-07-13T17:39:39;10.20;;;8.75;;
18206;SDS011;9229;52.354;20.886;2023-07-13T17:44:54;14.45;;;8.57;;
18206;SDS011;9229;52.354;20.886;2023-07-13T17:50:17;10.25;;;9.20;;
18206;SDS011;9229;52.354;20.886;2023-07-13T17:56:04;13.20;;;8.63;;
18206;SDS011;9229;52.354;20.886;2023-07-13T18:20:11;8.95;;;7.95;;
18206;SDS011;9229;52.354;20.886;2023-07-13T18:25:21;10.48;;;8.73;;
18206;SDS011;9229;52.354;20.886;2023-07-13T18:30:34;9.35;;;8.00;;
18206;SDS011;9229;52.354;20.886;2023-07-13T18:35:37;16.45;;;8.70;;
18206;SDS011;9229;52.354;20.886;2023-07-13T18:40:56;10.25;;;8.02;;
18206;SDS011;9229;52.354;20.886;2023-07-13T18:46:17;11.35;;;8.23;;
18206;SDS011;9229;52.354;20.886;2023-07-13T18:51:33;10.90;;;8.52;;
18206;SDS011;9229;52.354;20.886;2023-07-13T18:56:35;10.20;;;9.20;;
18206;SDS011;9229;52.354;20.886;2023-07-13T19:01:45;14.82;;;8.75;;
18206;SDS011;9229;52.354;20.886;2023-07-13T19:06:49;15.00;;;8.40;;
18206;SDS011;9229;52.354;20.886;2023-07-13T19:11:55;11.57;;;8.93;;
18206;SDS011;9229;52.354;20.886;2023-07-13T19:17:02;12.10;;;8.85;;
18206;SDS011;9229;52.354;20.886;2023-07-13T19:22:11;10.95;;;9.05;;
18206;SDS011;9229;52.354;20.886;2023-07-13T19:27:24;9.95;;;8.90;;
18206;SDS011;9229;52.354;20.886;2023-07-13T19:32:41;15.80;;;9.25;;
18206;SDS011;9229;52.354;20.886;2023-07-13T19:38:13;11.52;;;9.00;;
18206;SDS011;9229;52.354;20.886;2023-07-13T19:43:36;13.13;;;9.75;;
18206;SDS011;9229;52.354;20.886;2023-07-13T19:48:52;12.25;;;8.82;;
18206;SDS011;9229;52.354;20.886;2023-07-13T19:53:56;11.57;;;9.45;;
18206;SDS011;9229;52.354;20.886;2023-07-13T20:04:53;10.20;;;9.05;;
18206;SDS011;9229;52.354;20.886;2023-07-13T20:10:33;9.60;;;8.60;;
18206;SDS011;9229;52.354;20.886;2023-07-13T20:15:44;9.18;;;8.27;;
18206;SDS011;9229;52.354;20.886;2023-07-13T20:21:16;8.30;;;7.50;;
18206;SDS011;9229;52.354;20.886;2023-07-13T20:26:21;12.93;;;9.18;;
18206;SDS011;9229;52.354;20.886;2023-07-13T20:31:28;12.18;;;10.02;;
18206;SDS011;9229;52.354;20.886;2023-07-13T20:36:49;12.73;;;8.48;;
18206;SDS011;9229;52.354;20.886;2023-07-13T20:42:27;11.73;;;9.20;;
18206;SDS011;9229;52.354;20.886;2023-07-13T20:47:40;11.23;;;9.38;;
18206;SDS011;9229;52.354;20.886;2023-07-13T20:52:44;10.43;;;9.00;;
18206;SDS011;9229;52.354;20.886;2023-07-13T20:58:12;14.27;;;9.43;;
18206;SDS011;9229;52.354;20.886;2023-07-13T21:22:41;11.05;;;9.70;;
18206;SDS011;9229;52.354;20.886;2023-07-13T21:35:32;17.77;;;11.20;;
18206;SDS011;9229;52.354;20.886;2023-07-13T21:41:14;14.70;;;11.02;;
18206;SDS011;9229;52.354;20.886;2023-07-13T21:46:29;12.40;;;11.10;;
18206;SDS011;9229;52.354;20.886;2023-07-13T21:51:46;17.45;;;12.45;;
18206;SDS011;9229;52.354;20.886;2023-07-13T21:56:56;13.88;;;11.68;;
18206;SDS011;9229;52.354;20.886;2023-07-13T22:02:25;14.40;;;11.38;;
18206;SDS011;9229;52.354;20.886;2023-07-13T22:07:51;17.33;;;11.20;;
18206;SDS011;9229;52.354;20.886;2023-07-13T22:13:37;14.00;;;11.65;;
18206;SDS011;9229;52.354;20.886;2023-07-13T22:18:44;16.95;;;11.48;;
18206;SDS011;9229;52.354;20.886;2023-07-13T22:29:50;14.43;;;11.48;;
18206;SDS011;9229;52.354;20.886;2023-07-13T22:35:44;13.93;;;11.73;;
18206;SDS011;9229;52.354;20.886;2023-07-13T22:41:04;13.43;;;10.48;;
18206;SDS011;9229;52.354;20.886;2023-07-13T22:46:22;16.92;;;10.63;;
18206;SDS011;9229;52.354;20.886;2023-07-13T22:51:36;16.50;;;11.02;;
18206;SDS011;9229;52.354;20.886;2023-07-13T22:57:00;12.68;;;10.10;;
18206;SDS011;9229;52.354;20.886;2023-07-13T23:02:21;13.93;;;10.85;;
18206;SDS011;9229;52.354;20.886;2023-07-13T23:07:32;18.40;;;12.45;;
18206;SDS011;9229;52.354;20.886;2023-07-13T23:12:50;14.13;;;10.90;;
18206;SDS011;9229;52.354;20.886;2023-07-13T23:18:07;13.90;;;11.40;;
18206;SDS011;9229;52.354;20.886;2023-07-13T23:23:17;15.32;;;11.23;;
18206;SDS011;9229;52.354;20.886;2023-07-13T23:39:29;19.95;;;11.70;;
18206;SDS011;9229;52.354;20.886;2023-07-13T23:44:40;14.40;;;10.88;;
18206;SDS011;9229;52.354;20.886;2023-07-13T23:49:46;11.07;;;9.95;;
18206;SDS011;9229;52.354;20.886;2023-07-13T23:54:49;12.00;;;9.95;;
